KCWN

Cheyenne Mountain Airport

Cheyenne Mountain, Colorado, USA
METAR KCWN 170156Z AUTO 32009KT 10SM BKN150 02/M13 A2979 RMK AO2 SLP977 T00241128 $
Observed Flight Rules
Dec-17 @ 01:56 UTC (24 minutes ago) Visual Flight Rules
Wind Visibility Clouds
320° at 9 knots 10 miles
  • Broken at 15,000' AGL
Temperatures Readings
Current 2°C / 36°F
Dewpoint -13°C / 9°F
Humidity 32%
Altimeter 29.79" Hg
Pressure 997.7 hPa
Elevation 2040
METAR KCWN 170156Z AUTO 32009KT 10SM BKN150 02/M13 A2979 RMK AO2 SLP977 T00241128 $
Observed Flight Rules
Dec-17 @ 01:56 UTC
(24 minutes ago)
VFR
Wind Visibility
320° at 9 knots 10 miles
Clouds
  • Broken at 15,000' AGL
Temperature Dewpoint
2°C / 36°F -13°C / 9°F
Humidity Altimeter Pressure
32% 29.79" Hg 997.7 hPa